Time;durP1;ratioP1;P1;durP2;ratioP2;P2;SDS_P1;SDS_P2;PMS_P1;PMS_P2;Temp;Humidity;BMP_temperature;BMP_pressure;BME280_temperature;BME280_humidity;BME280_pressure;Samples;Min_cycle;Max_cycle;Signal;HPM_P1;HPM_P2
2023/01/11 00:02:38;;;;;;;14.95;13.43;;;;;;;7.24;100.00;100372.22;10542320;28;20044;-73
2023/01/11 00:07:39;;;;;;;17.60;13.85;;;;;;;7.26;100.00;100381.03;10564436;27;20394;-75
2023/01/11 00:12:40;;;;;;;14.75;13.32;;;;;;;7.31;100.00;100389.31;10565559;27;20035;-74
2023/01/11 00:17:40;;;;;;;15.65;14.07;;;;;;;7.31;100.00;100367.41;10548351;28;20043;-74
2023/01/11 00:22:41;;;;;;;14.73;13.35;;;;;;;7.38;100.00;100364.50;10563196;27;20047;-73
2023/01/11 00:27:41;;;;;;;15.38;13.88;;;;;;;7.43;100.00;100386.53;10523387;28;20067;-74
2023/01/11 00:32:42;;;;;;;15.27;13.68;;;;;;;7.44;100.00;100342.47;10537720;28;20032;-74
2023/01/11 00:37:42;;;;;;;14.75;13.38;;;;;;;7.51;100.00;100333.28;10538636;28;20032;-74
2023/01/11 00:48:04;;;;;;;14.43;12.77;;;;;;;7.66;100.00;100341.75;10536455;28;20088;-75
2023/01/11 00:53:05;;;;;;;13.15;11.95;;;;;;;7.68;100.00;100325.88;10537855;28;20040;-75
2023/01/11 00:58:05;;;;;;;14.65;13.27;;;;;;;7.75;100.00;100323.81;10537781;28;20032;-75
2023/01/11 01:03:07;;;;;;;14.25;12.98;;;;;;;7.74;100.00;100289.25;10536683;28;20040;-75
2023/01/11 01:08:08;;;;;;;13.07;11.90;;;;;;;7.88;100.00;100319.91;10546885;28;20032;-75
2023/01/11 01:18:28;;;;;;;13.48;12.38;;;;;;;8.01;100.00;100321.47;10523564;28;20032;-74
2023/01/11 01:23:29;;;;;;;12.55;11.45;;;;;;;8.07;100.00;100315.81;10519702;28;20040;-73
2023/01/11 01:28:29;;;;;;;12.57;11.57;;;;;;;8.12;100.00;100320.53;10536479;28;20608;-74
2023/01/11 01:33:30;;;;;;;12.68;11.57;;;;;;;8.01;100.00;100302.28;10536553;28;20125;-73
2023/01/11 01:38:30;;;;;;;12.65;11.55;;;;;;;8.14;100.00;100323.03;10520762;27;20051;-77
2023/01/11 01:43:51;;;;;;;12.90;11.80;;;;;;;8.21;100.00;100316.28;10519376;28;20060;-75
2023/01/11 01:48:56;;;;;;;12.35;11.23;;;;;;;8.19;100.00;100317.63;10538743;28;20025;-74
2023/01/11 01:53:57;;;;;;;13.90;12.48;;;;;;;8.23;100.00;100325.09;10536195;28;20039;-73
2023/01/11 01:59:07;;;;;;;12.73;11.57;;;;;;;8.29;100.00;100326.84;10519254;28;20070;-73
2023/01/11 02:04:11;;;;;;;12.70;11.60;;;;;;;8.23;100.00;100314.13;10553767;28;20035;-74
2023/01/11 02:09:20;;;;;;;12.98;11.77;;;;;;;8.30;100.00;100300.22;10529264;27;20048;-74
2023/01/11 02:14:21;;;;;;;12.85;11.75;;;;;;;8.13;100.00;100280.25;10535814;28;20040;-73
2023/01/11 02:19:33;;;;;;;12.82;11.63;;;;;;;8.42;100.00;100311.13;10535801;28;20040;-73
2023/01/11 02:24:51;;;;;;;13.98;12.68;;;;;;;8.46;100.00;100310.34;10543610;28;20032;-73
2023/01/11 02:30:08;;;;;;;12.68;11.48;;;;;;;8.42;100.00;100306.47;10543965;28;20040;-73
2023/01/11 02:36:01;;;;;;;13.18;11.93;;;;;;;8.52;100.00;100300.28;10543695;28;20044;-73
2023/01/11 02:41:22;;;;;;;13.23;12.00;;;;;;;8.55;100.00;100308.00;10510662;28;20054;-72
2023/01/11 02:46:30;;;;;;;12.68;11.48;;;;;;;8.57;100.00;100311.31;10544667;28;20081;-67
2023/01/11 02:51:40;;;;;;;13.40;12.20;;;;;;;8.60;100.00;100286.13;10543429;27;20036;-74
2023/01/11 02:56:42;;;;;;;13.68;12.48;;;;;;;8.59;100.00;100289.13;10542843;28;20074;-72
2023/01/11 03:01:46;;;;;;;12.98;11.88;;;;;;;8.73;100.00;100295.06;10525507;28;20040;-73
2023/01/11 03:06:46;;;;;;;13.05;11.95;;;;;;;8.71;100.00;100299.97;10508804;28;20039;-74
2023/01/11 03:18:01;;;;;;;12.70;11.45;;;;;;;8.86;100.00;100300.97;10542064;28;20036;-72
2023/01/11 03:23:10;;;;;;;12.07;11.07;;;;;;;8.94;100.00;100288.69;10497934;28;20489;-72
2023/01/11 03:28:20;;;;;;;13.75;10.98;;;;;;;8.99;100.00;100316.22;10557789;28;20044;-73
2023/01/11 03:33:23;;;;;;;11.40;10.50;;;;;;;9.06;100.00;100300.38;10540428;28;20032;-74
2023/01/11 03:38:27;;;;;;;10.90;10.10;;;;;;;9.08;100.00;100309.16;10508410;28;20036;-73
2023/01/11 03:43:27;;;;;;;10.77;9.95;;;;;;;9.09;100.00;100316.34;10541553;28;20486;-74
2023/01/11 03:48:37;;;;;;;10.05;9.23;;;;;;;9.15;100.00;100313.63;10523796;28;20070;-73
2023/01/11 03:53:38;;;;;;;9.65;8.95;;;;;;;9.19;100.00;100331.25;10540413;28;20070;-74
2023/01/11 03:58:38;;;;;;;9.43;8.73;;;;;;;9.20;100.00;100319.16;10506290;28;20040;-73
2023/01/11 04:03:38;;;;;;;9.93;9.13;;;;;;;9.16;100.00;100320.78;10539817;28;20043;-73
2023/01/11 04:08:39;;;;;;;8.73;8.13;;;;;;;9.23;100.00;100340.63;10539389;28;20036;-74
2023/01/11 04:13:40;;;;;;;9.18;8.48;;;;;;;9.28;100.00;100341.53;10539588;28;20039;-75
2023/01/11 04:18:40;;;;;;;8.32;7.78;;;;;;;9.30;100.00;100349.47;10556033;28;20040;-74
2023/01/11 04:23:41;;;;;;;8.75;8.15;;;;;;;9.32;100.00;100368.47;10539212;28;20028;-74
2023/01/11 04:28:42;;;;;;;8.40;7.80;;;;;;;9.35;100.00;100363.28;10538850;28;20032;-74
2023/01/11 04:33:43;;;;;;;7.82;7.22;;;;;;;9.34;100.00;100358.88;10540601;28;20047;-74
2023/01/11 04:38:43;;;;;;;7.47;6.88;;;;;;;9.26;100.00;100351.09;10541438;28;20036;-69
2023/01/11 04:43:43;;;;;;;6.72;6.22;;;;;;;9.36;100.00;100364.94;10521637;28;21230;-74
2023/01/11 04:48:44;;;;;;;6.63;6.22;;;;;;;9.41;100.00;100377.91;10540326;28;20059;-74
2023/01/11 04:53:46;;;;;;;6.50;5.82;;;;;;;9.43;100.00;100387.56;10521122;28;20505;-74
2023/01/11 04:58:47;;;;;;;6.30;5.90;;;;;;;9.46;100.00;100386.19;10553877;28;20491;-74
2023/01/11 05:03:47;;;;;;;6.32;5.93;;;;;;;9.40;100.00;100388.06;10554843;28;20028;-73
2023/01/11 05:08:48;;;;;;;7.70;7.13;;;;;;;9.50;100.00;100410.16;10555050;28;20036;-72
2023/01/11 05:13:48;;;;;;;7.82;7.13;;;;;;;9.55;100.00;100420.38;10537225;28;20028;-74
2023/01/11 05:18:53;;;;;;;8.70;7.63;;;;;;;9.59;100.00;100421.53;10537854;27;20492;-75
2023/01/11 05:23:54;;;;;;;10.95;8.75;;;;;;;9.60;100.00;100419.59;10553007;28;20059;-73
2023/01/11 05:28:55;;;;;;;13.05;9.35;;;;;;;9.61;100.00;100418.50;10536548;28;20040;-74
2023/01/11 05:33:57;;;;;;;20.40;10.10;;;;;;;9.70;100.00;100442.53;10554034;28;20044;-75
2023/01/11 05:38:57;;;;;;;18.15;11.15;;;;;;;9.63;100.00;100430.06;10532306;28;20039;-74
2023/01/11 05:49:16;;;;;;;15.65;10.00;;;;;;;9.35;100.00;100462.19;10578526;28;20419;-73
2023/01/11 05:54:17;;;;;;;26.88;9.75;;;;;;;9.31;100.00;100447.31;10580259;28;20043;-74
2023/01/11 05:59:17;;;;;;;20.17;9.20;;;;;;;9.33;100.00;100458.88;10603754;27;20074;-73
2023/01/11 06:04:18;;;;;;;23.15;9.35;;;;;;;9.28;100.00;100456.03;10586293;27;20111;-73
2023/01/11 06:09:18;;;;;;;30.45;10.68;;;;;;;9.15;100.00;100439.97;10551384;28;20039;-73
2023/01/11 06:14:19;;;;;;;12.52;8.80;;;;;;;9.15;100.00;100461.94;10526968;28;20074;-71
2023/01/11 06:19:19;;;;;;;12.30;8.77;;;;;;;9.15;100.00;100457.25;10545337;28;20043;-73
2023/01/11 06:24:20;;;;;;;18.48;9.25;;;;;;;9.11;100.00;100469.03;10526807;28;20055;-73
2023/01/11 06:29:20;;;;;;;26.85;8.90;;;;;;;9.08;100.00;100467.63;10543961;28;20082;-71
2023/01/11 06:34:21;;;;;;;18.77;9.63;;;;;;;9.08;100.00;100473.94;10545717;27;20039;-73
2023/01/11 06:39:21;;;;;;;25.40;9.38;;;;;;;9.04;100.00;100472.78;10601788;27;20107;-73
2023/01/11 06:44:22;;;;;;;31.38;11.05;;;;;;;9.05;100.00;100473.59;10568399;27;20027;-73
2023/01/11 06:49:22;;;;;;;23.88;11.85;;;;;;;9.11;100.00;100497.31;10568269;27;20036;-73
2023/01/11 06:54:24;;;;;;;34.22;10.70;;;;;;;9.06;100.00;100505.50;10567869;27;20038;-73
2023/01/11 06:59:24;;;;;;;26.35;10.93;;;;;;;9.03;100.00;100515.06;10568582;27;20047;-72
2023/01/11 07:04:25;;;;;;;35.47;10.70;;;;;;;9.01;100.00;100524.63;10549887;28;20032;-73
2023/01/11 07:09:25;;;;;;;43.00;12.43;;;;;;;8.98;100.00;100528.72;10522798;28;20040;-72
2023/01/11 07:14:26;;;;;;;27.85;11.52;;;;;;;8.95;100.00;100529.22;10543655;28;20039;-73
2023/01/11 07:19:26;;;;;;;31.55;11.65;;;;;;;8.89;100.00;100542.03;10541173;28;20043;-73
2023/01/11 07:24:27;;;;;;;23.65;9.68;;;;;;;8.81;100.00;100550.69;10524502;28;20032;-73
2023/01/11 07:29:27;;;;;;;32.22;9.63;;;;;;;8.80;100.00;100559.19;10542134;28;20051;-73
2023/01/11 07:34:28;;;;;;;21.77;10.98;;;;;;;8.84;100.00;100555.66;10562339;27;20036;-72
2023/01/11 07:39:28;;;;;;;29.45;10.27;;;;;;;8.86;100.00;100560.91;10564556;27;20043;-73
2023/01/11 07:44:29;;;;;;;22.55;9.85;;;;;;;8.89;100.00;100563.19;10540026;28;20457;-73
2023/01/11 07:49:30;;;;;;;32.80;9.98;;;;;;;8.77;100.00;100579.72;10556971;28;20032;-73
2023/01/11 07:54:30;;;;;;;26.13;10.30;;;;;;;8.75;100.00;100589.31;10542042;28;20039;-72
2023/01/11 07:59:31;;;;;;;29.95;10.32;;;;;;;8.72;100.00;100584.28;10537870;28;20043;-72
2023/01/11 08:04:31;;;;;;;19.77;9.40;;;;;;;8.73;100.00;100591.47;10525868;27;20043;-73
2023/01/11 08:09:32;;;;;;;29.60;10.23;;;;;;;8.74;100.00;100587.63;10580497;27;20032;-73
2023/01/11 08:14:38;;;;;;;20.50;9.50;;;;;;;8.76;100.00;100611.00;10547335;28;20036;-70
2023/01/11 08:19:39;;;;;;;24.48;10.27;;;;;;;8.75;100.00;100612.09;10582177;27;20035;-73
2023/01/11 08:24:39;;;;;;;21.40;10.50;;;;;;;8.69;100.00;100605.66;10547435;27;20122;-73
2023/01/11 08:29:43;;;;;;;22.15;9.75;;;;;;;8.76;100.00;100618.41;10530853;27;20035;-73
2023/01/11 08:34:43;;;;;;;24.60;11.55;;;;;;;8.71;100.00;100610.91;10559322;28;20507;-73
2023/01/11 08:39:43;;;;;;;21.63;10.20;;;;;;;8.80;100.00;100608.59;10537870;28;20043;-73
2023/01/11 08:44:44;;;;;;;17.70;9.00;;;;;;;8.77;100.00;100620.06;10539346;28;20518;-73
2023/01/11 08:49:44;;;;;;;16.45;8.52;;;;;;;8.72;100.00;100609.00;10525298;27;20503;-73
2023/01/11 08:54:45;;;;;;;20.60;8.57;;;;;;;8.78;100.00;100632.72;10580104;27;20523;-73
2023/01/11 08:59:45;;;;;;;18.73;8.55;;;;;;;8.78;100.00;100629.97;10580908;28;20407;-68
2023/01/11 09:04:46;;;;;;;15.93;8.20;;;;;;;8.76;100.00;100648.59;10562646;27;21072;-73
2023/01/11 09:09:46;;;;;;;18.58;8.25;;;;;;;8.65;100.00;100645.66;10560922;27;20032;-73
2023/01/11 09:14:47;;;;;;;11.50;9.63;;;;;;;8.56;100.00;100657.28;10538472;28;20078;-73
2023/01/11 09:19:47;;;;;;;18.95;9.60;;;;;;;8.43;100.00;100667.50;10518578;28;20048;-73
2023/01/11 09:24:48;;;;;;;26.00;10.32;;;;;;;8.35;100.00;100677.97;10554026;28;20036;-73
2023/01/11 09:29:48;;;;;;;13.43;8.68;;;;;;;8.17;100.00;100690.81;10537176;28;20093;-72
2023/01/11 09:34:52;;;;;;;22.83;9.90;;;;;;;8.06;100.00;100691.66;10554106;28;20036;-73
2023/01/11 09:39:52;;;;;;;23.02;7.80;;;;;;;8.00;100.00;100692.63;10536591;28;20040;-72
2023/01/11 09:44:55;;;;;;;17.20;8.25;;;;;;;7.95;100.00;100695.28;10549814;28;20039;-72
2023/01/11 09:49:57;;;;;;;25.23;7.20;;;;;;;8.06;100.00;100686.19;10518732;28;20058;-73
2023/01/11 09:54:58;;;;;;;15.10;6.88;;;;;;;8.12;100.00;100685.19;10536491;28;20036;-72
2023/01/11 10:00:11;;;;;;;14.23;6.50;;;;;;;8.07;100.00;100693.34;10536908;28;20056;-73
2023/01/11 10:05:20;;;;;;;10.20;6.40;;;;;;;8.00;100.00;100698.97;10560088;28;20061;-73
2023/01/11 10:10:46;;;;;;;17.98;6.70;;;;;;;7.95;100.00;100696.09;10547280;28;20105;-73
2023/01/11 10:16:04;;;;;;;20.83;5.93;;;;;;;8.06;100.00;100697.13;10535152;28;20032;-73
2023/01/11 10:21:23;;;;;;;11.13;6.25;;;;;;;8.02;100.00;100694.06;10557318;28;20274;-72
2023/01/11 10:26:31;;;;;;;13.73;7.03;;;;;;;8.11;100.00;100697.25;10544992;28;20578;-73
2023/01/11 10:42:21;;;;;;;;;;;;;;;8.44;100.00;100709.47;10548468;28;20502;-72
2023/01/11 10:47:24;;;;;;;11.00;4.60;;;;;;;8.46;100.00;100679.88;10565475;27;19915;-73
2023/01/11 10:53:02;;;;;;;15.48;5.10;;;;;;;8.61;100.00;100702.13;10568026;27;20143;-73
2023/01/11 10:58:06;;;;;;;11.73;3.60;;;;;;;8.81;100.00;100698.09;10584611;27;20054;-73
2023/01/11 11:03:32;;;;;;;12.60;3.35;;;;;;;8.98;100.00;100701.69;10579857;27;20044;-73
2023/01/11 11:08:41;;;;;;;10.53;3.30;;;;;;;9.15;100.00;100700.88;10539953;28;20056;-72
2023/01/11 11:13:51;;;;;;;19.98;3.78;;;;;;;9.25;100.00;100699.13;10541139;28;20100;-74
2023/01/11 11:18:52;;;;;;;14.43;3.22;;;;;;;9.33;100.00;100708.88;10541819;28;20044;-73
2023/01/11 11:24:01;;;;;;;15.82;4.82;;;;;;;9.20;100.00;100692.69;10557891;28;20451;-74
2023/01/11 11:29:04;;;;;;;17.63;3.67;;;;;;;9.50;100.00;100706.94;10541723;28;20100;-73
2023/01/11 11:34:06;;;;;;;13.73;2.85;;;;;;;9.53;100.00;100693.78;10541903;28;20059;-73
2023/01/11 11:39:17;;;;;;;23.92;4.75;;;;;;;9.74;100.00;100712.25;10540606;27;20036;-73
2023/01/11 11:44:20;;;;;;;10.48;2.80;;;;;;;9.57;100.00;100705.94;10542661;28;20054;-73
2023/01/11 11:49:21;;;;;;;12.95;3.53;;;;;;;9.48;100.00;100711.03;10542170;28;20065;-72
2023/01/11 11:54:21;;;;;;;15.63;3.78;;;;;;;9.40;100.00;100717.75;10542206;28;20032;-72
2023/01/11 11:59:23;;;;;;;20.33;3.45;;;;;;;9.75;100.00;100724.06;10542669;28;20055;-74
2023/01/11 12:04:49;;;;;;;9.57;2.25;;;;;;;9.89;100.00;100728.94;10523858;27;20036;-74
2023/01/11 12:09:54;;;;;;;12.95;2.97;;;;;;;9.53;100.00;100726.75;10538255;27;20040;-72
2023/01/11 12:15:13;;;;;;;18.27;2.67;;;;;;;9.85;100.00;100719.53;10555680;28;20036;-73
2023/01/11 12:20:22;;;;;;;19.27;3.22;;;;;;;10.29;100.00;100719.63;10522269;28;20488;-73
2023/01/11 12:25:24;;;;;;;11.07;2.25;;;;;;;10.34;100.00;100716.09;10540713;28;20040;-73
2023/01/11 12:30:25;;;;;;;11.93;2.67;;;;;;;10.26;100.00;100709.09;10539023;28;20092;-73
2023/01/11 12:35:41;;;;;;;15.52;4.00;;;;;;;10.02;100.00;100727.75;10555644;27;20061;-73
2023/01/11 12:41:03;;;;;;;10.23;2.43;;;;;;;10.08;100.00;100717.66;10553051;27;20780;-73
2023/01/11 12:46:12;;;;;;;15.65;3.30;;;;;;;9.97;100.00;100718.63;10561931;27;20055;-74
2023/01/11 12:51:34;;;;;;;15.50;3.22;;;;;;;9.78;100.00;100712.59;10522520;28;20024;-75
2023/01/11 12:56:43;;;;;;;17.02;2.75;;;;;;;9.70;100.00;100719.34;10538938;28;20043;-74
2023/01/11 13:01:54;;;;;;;18.25;2.95;;;;;;;9.79;100.00;100730.72;10497189;28;20508;-74
2023/01/11 13:07:14;;;;;;;17.15;3.22;;;;;;;9.50;100.00;100734.41;10543240;28;20069;-73
2023/01/11 13:12:20;;;;;;;20.05;3.70;;;;;;;9.28;100.00;100739.00;10560623;28;20044;-74
2023/01/11 13:17:47;;;;;;;19.50;2.83;;;;;;;9.21;100.00;100741.91;10581813;28;20050;-74
2023/01/11 13:22:58;;;;;;;21.65;4.60;;;;;;;9.39;100.00;100729.84;10555349;27;20043;-74
2023/01/11 13:27:59;;;;;;;13.88;3.78;;;;;;;9.06;100.00;100734.25;10579347;28;20089;-73
2023/01/11 13:33:03;;;;;;;13.95;3.72;;;;;;;8.99;100.00;100733.56;10578272;28;20503;-72
2023/01/11 13:38:12;;;;;;;10.85;3.13;;;;;;;8.98;100.00;100737.38;10545259;27;20126;-74
2023/01/11 13:43:15;;;;;;;21.13;3.75;;;;;;;8.96;100.00;100735.97;10556882;27;20044;-74
2023/01/11 13:48:26;;;;;;;17.75;4.32;;;;;;;8.99;100.00;100733.56;10537721;28;20051;-73
2023/01/11 13:53:37;;;;;;;22.42;3.88;;;;;;;8.92;100.00;100732.88;10520263;28;20246;-73
2023/01/11 13:58:47;;;;;;;14.48;3.70;;;;;;;9.00;100.00;100740.72;10519316;28;20499;-73
2023/01/11 14:03:59;;;;;;;16.55;3.40;;;;;;;9.08;100.00;100731.25;10520004;28;20174;-72
2023/01/11 14:09:14;;;;;;;20.73;4.53;;;;;;;8.09;100.00;100607.00;10519204;28;20046;-77
2023/01/11 14:14:24;;;;;;;13.70;3.10;;;;;;;9.03;100.00;100731.16;10552593;28;20127;-73
2023/01/11 14:20:06;;;;;;;13.68;3.35;;;;;;;8.87;100.00;100752.84;10565607;27;20047;-74
2023/01/11 14:25:25;;;;;;;23.33;3.70;;;;;;;8.75;100.00;100743.00;10585758;27;20027;-73
2023/01/11 14:30:54;;;;;;;17.52;3.20;;;;;;;8.71;100.00;100747.31;10602624;27;20044;-73
2023/01/11 14:36:00;;;;;;;17.40;3.75;;;;;;;8.64;100.00;100759.28;10568802;27;20046;-75
2023/01/11 14:41:08;;;;;;;18.13;3.70;;;;;;;8.73;100.00;100758.88;10543663;28;20060;-75
2023/01/11 14:46:50;;;;;;;18.35;3.70;;;;;;;8.74;100.00;100735.84;10542856;28;20099;-75
2023/01/11 14:51:50;;;;;;;19.73;4.47;;;;;;;8.55;100.00;100744.25;10507836;28;20509;-75
2023/01/11 14:56:55;;;;;;;16.70;4.15;;;;;;;8.39;100.00;100745.00;10559749;28;20036;-74
2023/01/11 15:02:01;;;;;;;15.63;3.80;;;;;;;8.27;100.00;100748.63;10525376;28;20484;-74
2023/01/11 15:07:22;;;;;;;21.75;5.22;;;;;;;8.12;100.00;100740.03;10542333;28;20633;-74
2023/01/11 15:12:35;;;;;;;16.05;4.20;;;;;;;8.01;100.00;100760.09;10544540;27;20075;-74
2023/01/11 15:22:56;;;;;;;32.35;5.75;;;;;;;7.80;100.00;100765.13;10543060;28;20074;-73
2023/01/11 15:27:56;;;;;;;20.67;5.22;;;;;;;7.60;100.00;100731.75;10557910;28;20043;-74
2023/01/11 15:33:15;;;;;;;23.10;4.38;;;;;;;7.83;100.00;100775.63;10524040;28;20101;-74
2023/01/11 15:38:22;;;;;;;29.08;4.93;;;;;;;7.78;100.00;100772.75;10542462;28;20051;-74
2023/01/11 15:43:50;;;;;;;17.35;2.80;;;;;;;7.81;100.00;100772.28;10558785;27;20067;-74
2023/01/11 15:49:31;;;;;;;22.80;4.95;;;;;;;7.76;100.00;100763.09;10582640;27;20104;-73
2023/01/11 15:55:22;;;;;;;19.75;4.57;;;;;;;7.60;100.00;100750.94;10581397;27;20044;-74
2023/01/11 16:00:35;;;;;;;21.80;4.78;;;;;;;7.42;100.00;100751.88;10547724;27;20048;-74
2023/01/11 16:05:36;;;;;;;21.77;3.63;;;;;;;7.22;100.00;100742.09;10570885;27;20507;-74
2023/01/11 16:10:47;;;;;;;18.05;3.70;;;;;;;7.16;100.00;100740.28;10539287;27;20036;-73
2023/01/11 16:15:56;;;;;;;20.25;3.40;;;;;;;7.15;100.00;100732.31;10556196;28;20036;-73
2023/01/11 16:21:16;;;;;;;20.45;4.72;;;;;;;7.15;100.00;100756.94;10541903;28;20122;-73
2023/01/11 16:26:18;;;;;;;20.00;5.45;;;;;;;7.12;100.00;100757.44;10537966;28;20204;-73
2023/01/11 16:31:19;;;;;;;19.42;3.97;;;;;;;6.96;100.00;100754.28;10538804;28;20089;-73
2023/01/11 16:36:21;;;;;;;17.30;3.60;;;;;;;7.06;100.00;100765.50;10519848;28;20089;-73
2023/01/11 16:41:22;;;;;;;19.58;3.25;;;;;;;7.07;100.00;100763.63;10536440;28;20495;-74
2023/01/11 16:47:06;;;;;;;19.95;3.42;;;;;;;7.18;100.00;100768.28;10538758;28;20050;-74
2023/01/11 16:52:43;;;;;;;17.75;3.50;;;;;;;7.21;100.00;100766.97;10499791;28;20040;-73
2023/01/11 16:57:46;;;;;;;18.13;3.70;;;;;;;7.07;100.00;100750.75;10495573;28;20085;-73
2023/01/11 17:02:48;;;;;;;29.38;4.22;;;;;;;7.14;100.00;100771.72;10537079;27;20051;-75
2023/01/11 17:07:49;;;;;;;17.80;4.38;;;;;;;7.14;100.00;100767.06;10520939;28;20040;-72
2023/01/11 17:13:50;;;;;;;19.38;3.88;;;;;;;7.26;100.00;100772.56;10502767;28;20062;-75
2023/01/11 17:18:30;;;;;;;23.58;4.53;;;;;;;7.40;100.00;100768.56;10537078;28;20028;-75
2023/01/11 17:23:31;;;;;;;15.90;3.60;;;;;;;7.46;100.00;100770.34;10519706;28;20043;-72
2023/01/11 17:28:31;;;;;;;14.18;3.35;;;;;;;7.35;100.00;100771.16;10536092;28;20035;-72
2023/01/11 17:33:32;;;;;;;20.65;3.90;;;;;;;7.32;100.00;100765.31;10536391;28;20035;-72
2023/01/11 17:38:32;;;;;;;15.95;3.70;;;;;;;7.31;100.00;100767.22;10575983;28;20077;-73
2023/01/11 17:48:52;;;;;;;17.45;4.40;;;;;;;7.34;100.00;100744.84;10579455;28;20034;-74
2023/01/11 17:53:53;;;;;;;20.10;4.10;;;;;;;7.27;100.00;100750.41;10550530;28;20044;-73
2023/01/11 17:59:07;;;;;;;18.08;3.85;;;;;;;7.23;100.00;100748.38;10556255;28;20055;-73
2023/01/11 18:04:16;;;;;;;20.83;3.65;;;;;;;7.21;100.00;100745.06;10552097;28;20065;-73
2023/01/11 18:09:28;;;;;;;18.35;4.30;;;;;;;7.13;100.00;100742.66;10546035;28;20059;-72
2023/01/11 18:14:29;;;;;;;16.60;3.63;;;;;;;7.04;100.00;100740.25;10565109;28;20081;-74
2023/01/11 18:19:33;;;;;;;17.40;5.07;;;;;;;7.09;100.00;100731.38;10566777;28;20043;-73
2023/01/11 18:24:35;;;;;;;20.40;3.90;;;;;;;7.05;100.00;100738.38;10577396;28;20047;-72
2023/01/11 18:29:35;;;;;;;18.08;3.80;;;;;;;7.13;100.00;100737.19;10577166;28;20035;-73
2023/01/11 18:34:35;;;;;;;18.52;4.53;;;;;;;7.19;100.00;100714.34;10578388;28;20035;-73
2023/01/11 18:39:36;;;;;;;17.73;3.72;;;;;;;7.13;100.00;100715.28;10575997;28;20073;-72
2023/01/11 18:44:38;;;;;;;20.95;4.22;;;;;;;6.98;100.00;100680.97;10562077;28;20517;-73
2023/01/11 18:49:38;;;;;;;18.95;4.57;;;;;;;7.20;100.00;100694.13;10575969;28;20064;-73
2023/01/11 18:54:39;;;;;;;31.73;5.25;;;;;;;7.28;100.00;100678.16;10547494;28;20054;-72
2023/01/11 18:59:40;;;;;;;16.85;3.78;;;;;;;7.29;100.00;100659.81;10578059;28;20087;-73
2023/01/11 19:04:40;;;;;;;19.95;3.30;;;;;;;7.30;100.00;100641.47;10564294;27;20036;-74
2023/01/11 19:09:41;;;;;;;17.58;4.03;;;;;;;7.39;100.00;100635.41;10563089;27;20032;-73
2023/01/11 19:14:41;;;;;;;20.40;3.13;;;;;;;7.00;100.00;100541.97;10581845;27;20058;-74
2023/01/11 19:19:42;;;;;;;16.40;3.63;;;;;;;7.55;100.00;100616.59;10582589;27;20046;-74
2023/01/11 19:24:42;;;;;;;17.73;4.05;;;;;;;7.58;100.00;100591.44;10565834;27;20047;-75
2023/01/11 19:29:43;;;;;;;17.00;3.25;;;;;;;7.58;100.00;100602.41;10583143;27;20044;-74
2023/01/11 19:34:43;;;;;;;21.77;3.85;;;;;;;7.57;100.00;100600.75;10599101;27;20028;-73
2023/01/11 19:39:45;;;;;;;16.75;4.95;;;;;;;7.28;100.00;100537.69;10564796;27;20043;-74
2023/01/11 19:44:45;;;;;;;25.33;5.32;;;;;;;7.52;100.00;100578.72;10564401;27;20023;-74
2023/01/11 19:49:45;;;;;;;16.20;3.08;;;;;;;7.50;100.00;100564.41;10581785;27;20460;-70
2023/01/11 19:54:47;;;;;;;18.10;3.40;;;;;;;7.59;100.00;100579.44;10564912;27;20043;-74
2023/01/11 19:59:47;;;;;;;15.10;4.80;;;;;;;7.54;100.00;100590.25;10599468;27;20040;-75
2023/01/11 20:04:48;;;;;;;13.75;4.10;;;;;;;7.41;100.00;100575.75;10581772;27;20503;-76
2023/01/11 20:09:48;;;;;;;17.85;4.63;;;;;;;7.26;100.00;100562.56;10581476;27;20057;-80
2023/01/11 20:14:49;;;;;;;10.48;3.97;;;;;;;7.18;100.00;100564.84;10581111;27;20036;-79
2023/01/11 20:19:53;;;;;;;18.52;4.78;;;;;;;7.08;100.00;100571.72;10595538;27;20055;-80
2023/01/11 20:24:54;;;;;;;19.35;4.80;;;;;;;7.02;100.00;100559.00;10581803;27;20472;-81
2023/01/11 20:29:55;;;;;;;14.10;4.40;;;;;;;6.99;100.00;100556.75;10581278;27;20092;-80
2023/01/11 20:34:55;;;;;;;11.50;3.70;;;;;;;7.14;100.00;100558.19;10578614;27;20032;-81
2023/01/11 20:39:56;;;;;;;14.23;3.42;;;;;;;7.06;100.00;100551.97;10561383;27;20063;-85
2023/01/11 20:44:56;;;;;;;15.45;4.70;;;;;;;7.03;100.00;100541.53;10580996;27;20503;-83
2023/01/11 20:49:57;;;;;;;17.95;4.47;;;;;;;6.90;100.00;100529.97;10580866;28;20043;-79
2023/01/11 20:54:57;;;;;;;9.00;4.53;;;;;;;6.96;100.00;100529.03;10561400;28;20057;-80
2023/01/11 20:59:58;;;;;;;13.80;4.97;;;;;;;6.91;100.00;100521.53;10566022;27;20035;-82
2023/01/11 21:04:58;;;;;;;15.48;5.03;;;;;;;6.91;100.00;100510.59;10578457;27;20048;-80
2023/01/11 21:09:59;;;;;;;14.27;5.40;;;;;;;6.89;100.00;100529.16;10577274;27;20363;-80
2023/01/11 21:14:59;;;;;;;16.50;7.20;;;;;;;6.86;100.00;100494.03;10557815;28;20032;-78
2023/01/11 21:20:00;;;;;;;20.58;6.07;;;;;;;6.90;100.00;100510.81;10552010;27;21243;-80
2023/01/11 21:25:00;;;;;;;19.65;7.38;;;;;;;6.91;100.00;100520.72;10547755;27;20044;-78
2023/01/11 21:30:01;;;;;;;21.98;6.60;;;;;;;6.89;100.00;100534.63;10544218;28;20044;-77
2023/01/11 21:35:01;;;;;;;14.98;6.00;;;;;;;6.91;100.00;100521.53;10559094;28;20488;-76
2023/01/11 21:40:02;;;;;;;17.20;6.47;;;;;;;6.91;100.00;100516.06;10562137;28;20040;-79
2023/01/11 21:45:04;;;;;;;20.02;7.32;;;;;;;6.93;100.00;100511.19;10528869;28;20062;-78
2023/01/11 21:50:08;;;;;;;16.38;6.57;;;;;;;6.88;100.00;100491.88;10555157;28;20080;-76
2023/01/11 21:55:09;;;;;;;23.35;6.65;;;;;;;6.99;100.00;100506.66;10536175;28;20036;-77
2023/01/11 22:00:12;;;;;;;15.63;5.93;;;;;;;6.98;100.00;100500.34;10533574;28;20048;-77
2023/01/11 22:05:13;;;;;;;8.45;5.68;;;;;;;7.03;100.00;100513.31;10536650;28;20068;-77
2023/01/11 22:10:14;;;;;;;14.25;4.90;;;;;;;7.05;100.00;100505.69;10562452;28;20446;-83
2023/01/11 22:15:14;;;;;;;12.73;4.78;;;;;;;7.07;100.00;100489.88;10577412;28;20122;-74
2023/01/11 22:20:16;;;;;;;8.32;4.47;;;;;;;7.05;100.00;100484.63;10577328;28;20036;-76
2023/01/11 22:25:16;;;;;;;19.92;4.05;;;;;;;7.17;100.00;100494.72;10552134;28;20074;-74
2023/01/11 22:30:17;;;;;;;13.25;5.45;;;;;;;7.19;100.00;100473.41;10572814;28;20073;-75
2023/01/11 22:35:18;;;;;;;12.52;3.88;;;;;;;7.23;100.00;100477.31;10576458;28;20040;-76
2023/01/11 22:40:18;;;;;;;12.07;3.95;;;;;;;7.16;100.00;100485.69;10549733;28;20536;-74
2023/01/11 22:45:19;;;;;;;10.82;4.35;;;;;;;7.08;100.00;100484.13;10558513;28;20120;-77
2023/01/11 22:50:19;;;;;;;10.75;4.40;;;;;;;7.20;100.00;100472.34;10558767;28;20748;-79
2023/01/11 22:55:20;;;;;;;9.38;3.60;;;;;;;7.24;100.00;100476.25;10551097;28;20055;-78
2023/01/11 23:00:20;;;;;;;11.80;4.60;;;;;;;7.33;100.00;100483.00;10556600;27;20101;-74
2023/01/11 23:05:21;;;;;;;18.20;5.32;;;;;;;7.38;100.00;100488.59;10573127;27;20032;-75
2023/01/11 23:10:21;;;;;;;12.32;3.05;;;;;;;7.55;100.00;100496.06;10551726;27;20028;-74
2023/01/11 23:15:22;;;;;;;11.35;3.10;;;;;;;7.65;100.00;100490.78;10566716;27;20036;-71
2023/01/11 23:20:23;;;;;;;14.68;3.75;;;;;;;7.60;100.00;100494.22;10564485;28;20381;-71
2023/01/11 23:25:23;;;;;;;10.57;4.22;;;;;;;7.53;100.00;100500.94;10572377;27;20047;-72
2023/01/11 23:30:24;;;;;;;20.55;3.97;;;;;;;7.46;100.00;100504.66;10575719;27;20065;-72
2023/01/11 23:35:24;;;;;;;10.13;2.83;;;;;;;7.54;100.00;100491.63;10560784;27;20052;-76
2023/01/11 23:40:25;;;;;;;8.73;3.25;;;;;;;7.45;100.00;100493.94;10545487;27;20097;-75
2023/01/11 23:45:25;;;;;;;7.45;2.35;;;;;;;7.36;100.00;100498.97;10562848;27;20097;-74
2023/01/11 23:50:25;;;;;;;12.23;3.80;;;;;;;7.30;100.00;100508.16;10565240;27;20032;-76